ADDS METAR Data INFO
IDs: Format: Raw Decoded Include TAF

Data at: 1120 UTC 21 Feb 2018

KBAZ 201454Z 14015KT 10SM SCT020 OVC055 21/19 A2992 RMK AO2 T02110189
KBAZ 201451Z 14015KT 10SM FEW020 OVC055 21/19 A2993 RMK AO2 RAB1355E25 SLP127 P0000 60000 T02110189 53005
KBAZ 201351Z 15016KT 10SM BKN080 BKN120 21/18 A2991 RMK AO2 SLP121 T02110183
KBAZ 201251Z AUTO 15016G26KT 10SM FEW037 SCT049 BKN055 22/18 A2991 RMK AO2 PK WND 16026/1246 RAB18E27 SLP120 P0000 T02170183
KBAZ 201151Z AUTO 17010KT 10SM FEW024 BKN045 OVC055 22/18 A2991 RMK AO2 RAB37E49 SLP120 P0000 60000 T02170183 10239 20217 53012
KBAZ 201051Z AUTO 17011KT 10SM SCT024 BKN030 OVC048 22/18 A2988 RMK AO2 RAB30E39 SLP112 P0000 T02220183
KBAZ 200951Z AUTO 17011KT 10SM BKN024 OVC030 22/18 A2988 RMK AO2 SLP109 T02220183
KBAZ 200851Z AUTO 17013KT 10SM BKN025 OVC034 22/18 A2987 RMK AO2 SLP108 T02220183 53001
KBAZ 200751Z AUTO 16013KT 10SM SCT022 BKN027 OVC043 23/19 A2986 RMK AO2 SLP105 T02280189
KBAZ 200742Z AUTO 17014G23KT 10SM FEW022 BKN028 OVC043 23/19 A2986 RMK AO2 T02280189
KBAZ 200732Z AUTO 17018G22KT 10SM SCT022 BKN030 OVC037 23/19 A2986 RMK AO2 T02280189
KBAZ 200651Z AUTO 17017KT 10SM SCT023 BKN027 OVC034 23/18 A2986 RMK AO2 PK WND 19030/0603 SLP104 T02280183
KBAZ 200551Z AUTO 17018G26KT 10SM BKN022 OVC028 23/18 A2987 RMK AO2 PK WND 17026/0541 RAB0456E13 SLP107 P0000 60000 T02280183 10244 20222 402780200 53012
KBAZ 200451Z AUTO 17017KT 10SM OVC020 23/19 A2985 RMK AO2 PK WND 17026/0434 SLP101 T02280189
KBAZ 200351Z AUTO 16019KT 10SM OVC016 22/19 A2984 RMK AO2 PK WND 15028/0256 RAE14B40E49 SLP099 P0000 T02220194
KBAZ 200251Z AUTO 16017G27KT 10SM -RA OVC017 23/19 A2983 RMK AO2 PK WND 15027/0234 RAB44 SLP096 P0000 60000 T02280189 50005
KBAZ 200151Z AUTO 16016G24KT 10SM OVC019 23/19 A2984 RMK AO2 SLP097 T02280189
KBAZ 200121Z AUTO 16014KT 10SM BKN021 23/19 A2983 RMK AO2 T02280189
KBAZ 200051Z 15018KT 10SM SCT024 BKN041 23/18 A2981 RMK AO2 PK WND 16028/2354 SLP089 T02330183
KBAZ 200020Z 16017KT 10SM SCT028 OVC038 24/18 A2982 RMK AO2 PK WND 16028/2354 T02390183
KBAZ 192351Z 16020G28KT 10SM OVC029 24/18 A2982 RMK AO2 PK WND 16029/2329 LTG DSNT NW SLP090 T02440183 10278 20244 53003
KBAZ 192324Z 16024G28KT 10SM BKN029 OVC041 24/18 A2982 RMK AO2 PK WND 16028/2323 T02440183